createdAt,value
2019-05-07T00:00:32.779Z,1012.22
2019-05-07T00:01:33.926Z,1012.21
2019-05-07T00:02:32.159Z,1012.22
2019-05-07T00:03:32.763Z,1012.22
2019-05-07T00:04:33.037Z,1012.23
2019-05-07T00:05:33.001Z,1012.26
2019-05-07T00:06:32.598Z,1012.24
2019-05-07T00:07:31.939Z,1012.23
2019-05-07T00:08:32.163Z,1012.28
2019-05-07T00:09:32.301Z,1012.23
2019-05-07T00:10:32.943Z,1012.28
2019-05-07T00:11:32.990Z,1012.24
2019-05-07T00:12:32.324Z,1012.22
2019-05-07T00:13:30.576Z,1012.26
2019-05-07T00:14:32.003Z,1012.25
2019-05-07T00:15:32.575Z,1012.22
2019-05-07T00:16:32.536Z,1012.23
2019-05-07T00:17:32.282Z,1012.26
2019-05-07T00:18:32.154Z,1012.20
2019-05-07T00:19:32.408Z,1012.19
2019-05-07T00:20:32.581Z,1012.18
2019-05-07T00:21:32.548Z,1012.15
2019-05-07T00:22:32.586Z,1012.21
2019-05-07T00:23:32.491Z,1012.23
2019-05-07T00:24:32.527Z,1012.18
2019-05-07T00:25:32.668Z,1012.24
2019-05-07T00:26:32.056Z,1012.23
2019-05-07T00:27:32.059Z,1012.23
2019-05-07T00:28:32.476Z,1012.25
2019-05-07T00:29:32.168Z,1012.28
2019-05-07T00:30:30.391Z,1012.29
2019-05-07T00:31:32.498Z,1012.28
2019-05-07T00:32:32.721Z,1012.31
2019-05-07T00:33:32.340Z,1012.33
2019-05-07T00:34:32.668Z,1012.32
2019-05-07T00:35:32.301Z,1012.32
2019-05-07T00:36:32.388Z,1012.35
2019-05-07T00:37:32.250Z,1012.33
2019-05-07T00:38:31.935Z,1012.36
2019-05-07T00:39:32.666Z,1012.35
2019-05-07T00:40:33.102Z,1012.35
2019-05-07T00:41:31.882Z,1012.33
2019-05-07T00:42:32.149Z,1012.38
2019-05-07T00:43:32.259Z,1012.38
2019-05-07T00:44:30.259Z,1012.37
2019-05-07T00:45:32.495Z,1012.41
2019-05-07T00:46:32.135Z,1012.33
2019-05-07T00:47:30.199Z,1012.33
2019-05-07T00:48:32.543Z,1012.32
2019-05-07T00:49:30.208Z,1012.34
2019-05-07T00:50:30.222Z,1012.33
2019-05-07T00:51:30.158Z,1012.30
2019-05-07T00:52:30.155Z,1012.35
2019-05-07T00:53:30.166Z,1012.33
2019-05-07T00:54:32.389Z,1012.34
2019-05-07T00:55:30.118Z,1012.30
2019-05-07T00:56:30.120Z,1012.34
2019-05-07T00:57:32.240Z,1012.36
2019-05-07T00:58:32.014Z,1012.36
2019-05-07T00:59:32.081Z,1012.38
2019-05-07T01:00:30.102Z,1012.38
2019-05-07T01:01:32.221Z,1012.39
2019-05-07T01:02:32.201Z,1012.38
2019-05-07T01:03:30.033Z,1012.45
2019-05-07T01:04:30.263Z,1012.45
2019-05-07T01:05:30.015Z,1012.42
2019-05-07T01:06:30.094Z,1012.39
2019-05-07T01:07:32.326Z,1012.42
2019-05-07T01:08:32.084Z,1012.47
2019-05-07T01:09:32.246Z,1012.42
2019-05-07T01:10:29.981Z,1012.45
2019-05-07T01:11:29.952Z,1012.46
2019-05-07T01:12:29.933Z,1012.44
2019-05-07T01:13:32.197Z,1012.44
2019-05-07T01:14:29.915Z,1012.44
2019-05-07T01:15:32.152Z,1012.40
2019-05-07T01:16:29.888Z,1012.43
2019-05-07T01:17:29.888Z,1012.38
2019-05-07T01:18:29.861Z,1012.41
2019-05-07T01:19:29.864Z,1012.40
2019-05-07T01:20:29.858Z,1012.38
2019-05-07T01:21:32.254Z,1012.43
2019-05-07T01:22:29.815Z,1012.41
2019-05-07T01:23:32.111Z,1012.40
2019-05-07T01:24:32.064Z,1012.41
2019-05-07T01:25:29.835Z,1012.41
2019-05-07T01:26:29.780Z,1012.44
2019-05-07T01:27:31.984Z,1012.39
2019-05-07T01:28:29.754Z,1012.42
2019-05-07T01:29:29.754Z,1012.42
2019-05-07T01:30:29.730Z,1012.44
2019-05-07T01:31:29.862Z,1012.43
2019-05-07T01:32:29.768Z,1012.42
2019-05-07T01:33:29.722Z,1012.42
2019-05-07T01:34:29.686Z,1012.40
2019-05-07T01:35:29.680Z,1012.39
2019-05-07T01:36:31.778Z,1012.35
2019-05-07T01:37:29.655Z,1012.40
2019-05-07T01:38:29.669Z,1012.41
2019-05-07T01:39:29.666Z,1012.37
2019-05-07T01:40:29.625Z,1012.38
2019-05-07T01:41:29.609Z,1012.39
2019-05-07T01:42:29.624Z,1012.41
2019-05-07T01:43:31.962Z,1012.42
2019-05-07T01:44:29.620Z,1012.41
2019-05-07T01:45:43.241Z,1012.43
2019-05-07T01:46:32.436Z,1012.38
2019-05-07T01:47:29.561Z,1012.38
2019-05-07T01:48:29.549Z,1012.44
2019-05-07T01:49:29.546Z,1012.43
2019-05-07T01:50:29.532Z,1012.40
2019-05-07T01:51:29.533Z,1012.39
2019-05-07T01:52:29.503Z,1012.44
2019-05-07T01:53:29.494Z,1012.44
2019-05-07T01:54:29.473Z,1012.48
2019-05-07T01:55:29.474Z,1012.45
2019-05-07T01:56:29.458Z,1012.48
2019-05-07T01:57:29.439Z,1012.47
2019-05-07T01:58:29.435Z,1012.45
2019-05-07T01:59:29.413Z,1012.44
2019-05-07T02:00:29.430Z,1012.46
2019-05-07T02:01:29.407Z,1012.47
2019-05-07T02:02:29.397Z,1012.43
2019-05-07T02:03:29.374Z,1012.45
2019-05-07T02:04:29.374Z,1012.46
2019-05-07T02:05:32.496Z,1012.45
2019-05-07T02:06:29.344Z,1012.44
2019-05-07T02:07:29.334Z,1012.40
2019-05-07T02:08:29.312Z,1012.40
2019-05-07T02:09:29.307Z,1012.41
2019-05-07T02:10:29.315Z,1012.39
2019-05-07T02:11:29.321Z,1012.37
2019-05-07T02:12:29.281Z,1012.38
2019-05-07T02:13:29.273Z,1012.34
2019-05-07T02:14:29.274Z,1012.37
2019-05-07T02:15:29.305Z,1012.39
2019-05-07T02:16:29.287Z,1012.36
2019-05-07T02:17:29.246Z,1012.36
2019-05-07T02:18:29.229Z,1012.37
2019-05-07T02:19:29.222Z,1012.34
2019-05-07T02:20:29.192Z,1012.36
2019-05-07T02:21:29.189Z,1012.34
2019-05-07T02:22:29.173Z,1012.34
2019-05-07T02:23:29.195Z,1012.33
2019-05-07T02:24:29.146Z,1012.35
2019-05-07T02:25:29.138Z,1012.38
2019-05-07T02:26:29.127Z,1012.36
2019-05-07T02:27:29.128Z,1012.32
2019-05-07T02:28:29.117Z,1012.32
2019-05-07T02:29:29.117Z,1012.35
2019-05-07T02:30:29.083Z,1012.36
2019-05-07T02:31:29.070Z,1012.32
2019-05-07T02:32:29.064Z,1012.34
2019-05-07T02:33:29.058Z,1012.35
2019-05-07T02:34:29.038Z,1012.33
2019-05-07T02:35:29.305Z,1012.36
2019-05-07T02:36:29.032Z,1012.33
2019-05-07T02:37:40.904Z,1012.35
2019-05-07T02:38:30.032Z,1012.34
2019-05-07T02:39:29.017Z,1012.30
2019-05-07T02:40:29.150Z,1012.33
2019-05-07T02:41:29.191Z,1012.32
2019-05-07T02:42:28.954Z,1012.33
2019-05-07T02:43:28.952Z,1012.31
2019-05-07T02:44:28.932Z,1012.33
2019-05-07T02:45:28.935Z,1012.31
2019-05-07T02:46:31.936Z,1012.30
2019-05-07T02:47:32.855Z,1012.31
2019-05-07T02:48:28.892Z,1012.30
2019-05-07T02:49:28.880Z,1012.32
2019-05-07T02:50:28.891Z,1012.31
2019-05-07T02:51:28.873Z,1012.30
2019-05-07T02:52:28.872Z,1012.26
2019-05-07T02:53:28.887Z,1012.27
2019-05-07T02:54:28.841Z,1012.34
2019-05-07T02:55:28.809Z,1012.29
2019-05-07T02:56:28.807Z,1012.32
2019-05-07T02:57:28.791Z,1012.30
2019-05-07T02:58:28.812Z,1012.31
2019-05-07T02:59:28.786Z,1012.34
2019-05-07T03:00:28.772Z,1012.38
2019-05-07T03:01:28.749Z,1012.32
2019-05-07T03:02:28.749Z,1012.39
2019-05-07T03:03:28.843Z,1012.38
2019-05-07T03:04:28.710Z,1012.38
2019-05-07T03:05:28.704Z,1012.34
2019-05-07T03:06:28.684Z,1012.36
2019-05-07T03:07:28.693Z,1012.37
2019-05-07T03:08:28.692Z,1012.36
2019-05-07T03:09:28.695Z,1012.37
2019-05-07T03:10:28.677Z,1012.39
2019-05-07T03:11:28.639Z,1012.41
2019-05-07T03:12:28.623Z,1012.37
2019-05-07T03:13:28.631Z,1012.40
2019-05-07T03:14:28.629Z,1012.35
2019-05-07T03:15:28.630Z,1012.33
2019-05-07T03:16:40.060Z,1012.37
2019-05-07T03:17:29.576Z,1012.36
2019-05-07T03:18:28.595Z,1012.36
2019-05-07T03:19:28.558Z,1012.35
2019-05-07T03:20:28.547Z,1012.35
2019-05-07T03:21:28.537Z,1012.35
2019-05-07T03:22:28.529Z,1012.29
2019-05-07T03:23:28.513Z,1012.34
2019-05-07T03:24:28.505Z,1012.33
2019-05-07T03:25:28.485Z,1012.37
2019-05-07T03:26:28.522Z,1012.36
2019-05-07T03:27:28.462Z,1012.39
2019-05-07T03:28:28.507Z,1012.36
2019-05-07T03:29:28.447Z,1012.37
2019-05-07T03:30:28.437Z,1012.37
2019-05-07T03:31:28.430Z,1012.39
2019-05-07T03:32:28.782Z,1012.35
2019-05-07T03:33:28.417Z,1012.36
2019-05-07T03:34:28.620Z,1012.35
2019-05-07T03:35:28.579Z,1012.34
2019-05-07T03:36:28.371Z,1012.36
2019-05-07T03:37:32.084Z,1012.37
2019-05-07T03:38:29.369Z,1012.37
2019-05-07T03:39:28.332Z,1012.40
2019-05-07T03:40:28.359Z,1012.39
2019-05-07T03:41:28.323Z,1012.41
2019-05-07T03:42:28.337Z,1012.39
2019-05-07T03:43:28.292Z,1012.39
2019-05-07T03:44:28.282Z,1012.42
2019-05-07T03:45:28.290Z,1012.42
2019-05-07T03:46:28.261Z,1012.41
2019-05-07T03:47:28.249Z,1012.43
2019-05-07T03:48:28.253Z,1012.43
2019-05-07T03:49:28.230Z,1012.43
2019-05-07T03:50:28.208Z,1012.42
2019-05-07T03:51:28.212Z,1012.46
2019-05-07T03:52:28.200Z,1012.45
2019-05-07T03:53:28.219Z,1012.46
2019-05-07T03:54:28.168Z,1012.47
2019-05-07T03:55:28.177Z,1012.49
2019-05-07T03:56:28.185Z,1012.50
2019-05-07T03:57:28.135Z,1012.47
2019-05-07T03:58:28.186Z,1012.47
2019-05-07T03:59:28.121Z,1012.49
2019-05-07T04:00:28.160Z,1012.52
2019-05-07T04:01:28.195Z,1012.48
2019-05-07T04:02:28.075Z,1012.46
2019-05-07T04:03:28.103Z,1012.49
2019-05-07T04:04:28.071Z,1012.49
2019-05-07T04:05:28.048Z,1012.51
2019-05-07T04:06:28.068Z,1012.53
2019-05-07T04:07:28.051Z,1012.54
2019-05-07T04:08:28.016Z,1012.54
2019-05-07T04:09:28.005Z,1012.57
2019-05-07T04:10:28.011Z,1012.55
2019-05-07T04:11:28.640Z,1012.58
2019-05-07T04:12:27.983Z,1012.56
2019-05-07T04:13:27.986Z,1012.54
2019-05-07T04:14:27.947Z,1012.57
2019-05-07T04:15:27.941Z,1012.63
2019-05-07T04:16:27.924Z,1012.62
2019-05-07T04:17:27.935Z,1012.60
2019-05-07T04:18:27.924Z,1012.59
2019-05-07T04:19:27.931Z,1012.64
2019-05-07T04:20:27.895Z,1012.63
2019-05-07T04:21:27.888Z,1012.58
2019-05-07T04:22:29.104Z,1012.59
2019-05-07T04:23:27.911Z,1012.63
2019-05-07T04:24:27.859Z,1012.61
2019-05-07T04:25:27.829Z,1012.65
2019-05-07T04:26:27.836Z,1012.64
2019-05-07T04:27:27.817Z,1012.61
2019-05-07T04:28:27.817Z,1012.64
2019-05-07T04:29:27.845Z,1012.59
2019-05-07T04:30:27.803Z,1012.60
2019-05-07T04:31:27.771Z,1012.61
2019-05-07T04:32:27.760Z,1012.68
2019-05-07T04:33:27.736Z,1012.66
2019-05-07T04:34:27.739Z,1012.66
2019-05-07T04:35:28.040Z,1012.61
2019-05-07T04:36:27.717Z,1012.61
2019-05-07T04:37:27.708Z,1012.66
2019-05-07T04:38:27.711Z,1012.65
2019-05-07T04:39:27.714Z,1012.67
2019-05-07T04:40:27.709Z,1012.64
2019-05-07T04:41:27.674Z,1012.69
2019-05-07T04:42:27.644Z,1012.70
2019-05-07T04:43:27.660Z,1012.66
2019-05-07T04:44:27.685Z,1012.67
2019-05-07T04:45:27.638Z,1012.71
2019-05-07T04:46:27.617Z,1012.68
2019-05-07T04:47:38.575Z,1012.71
2019-05-07T04:48:28.585Z,1012.68
2019-05-07T04:49:27.566Z,1012.69
2019-05-07T04:50:39.287Z,1012.76
2019-05-07T04:51:28.561Z,1012.76
2019-05-07T04:52:27.566Z,1012.72
2019-05-07T04:53:27.590Z,1012.79
2019-05-07T04:54:27.529Z,1012.76
2019-05-07T04:55:27.508Z,1012.80
2019-05-07T04:56:27.514Z,1012.76
2019-05-07T04:57:27.551Z,1012.79
2019-05-07T04:58:27.546Z,1012.81
2019-05-07T04:59:27.488Z,1012.79
2019-05-07T05:00:27.458Z,1012.78
2019-05-07T05:01:27.443Z,1012.82
2019-05-07T05:02:27.632Z,1012.81
2019-05-07T05:03:27.417Z,1012.82
2019-05-07T05:04:31.528Z,1012.80
2019-05-07T05:05:28.427Z,1012.83
2019-05-07T05:06:27.392Z,1012.85
2019-05-07T05:07:27.509Z,1012.90
2019-05-07T05:08:27.397Z,1012.88
2019-05-07T05:09:27.404Z,1012.89
2019-05-07T05:10:27.367Z,1012.95
2019-05-07T05:11:27.337Z,1012.93
2019-05-07T05:12:27.313Z,1012.94
2019-05-07T05:13:27.309Z,1012.94
2019-05-07T05:14:27.296Z,1012.93
2019-05-07T05:15:27.325Z,1012.99
2019-05-07T05:16:27.268Z,1013.01
2019-05-07T05:17:27.266Z,1013.01
2019-05-07T05:18:27.305Z,1013.01
2019-05-07T05:19:27.242Z,1013.04
2019-05-07T05:20:27.251Z,1013.05
2019-05-07T05:21:27.265Z,1013.07
2019-05-07T05:22:27.251Z,1013.05
2019-05-07T05:23:27.207Z,1013.04
2019-05-07T05:24:27.183Z,1013.11
2019-05-07T05:25:27.172Z,1013.10
2019-05-07T05:26:27.188Z,1013.07
2019-05-07T05:27:29.962Z,1013.04
2019-05-07T05:28:27.140Z,1013.05
2019-05-07T05:29:27.131Z,1013.05
2019-05-07T05:30:27.117Z,1013.07
2019-05-07T05:31:27.120Z,1013.06
2019-05-07T05:32:27.254Z,1013.10
2019-05-07T05:33:27.123Z,1013.08
2019-05-07T05:34:27.084Z,1013.13
2019-05-07T05:35:27.088Z,1013.11
2019-05-07T05:36:27.057Z,1013.13
2019-05-07T05:37:27.049Z,1013.11
2019-05-07T05:38:27.038Z,1013.09
2019-05-07T05:39:27.033Z,1013.11
2019-05-07T05:40:27.105Z,1013.09
2019-05-07T05:41:27.018Z,1013.13
2019-05-07T05:42:26.997Z,1013.15
2019-05-07T05:43:26.976Z,1013.10
2019-05-07T05:44:26.966Z,1013.13
2019-05-07T05:45:27.060Z,1013.09
2019-05-07T05:46:26.942Z,1013.11
2019-05-07T05:47:26.928Z,1013.14
2019-05-07T05:48:26.932Z,1013.19
2019-05-07T05:49:26.902Z,1013.20
2019-05-07T05:50:26.954Z,1013.17
2019-05-07T05:51:26.889Z,1013.17
2019-05-07T05:52:26.881Z,1013.17
2019-05-07T05:53:26.868Z,1013.18
2019-05-07T05:54:26.838Z,1013.13
2019-05-07T05:55:26.855Z,1013.17
2019-05-07T05:56:26.852Z,1013.13
2019-05-07T05:57:26.842Z,1013.14
2019-05-07T05:58:26.832Z,1013.23
2019-05-07T05:59:37.121Z,1013.15
2019-05-07T06:00:27.788Z,1013.14
2019-05-07T06:01:26.775Z,1013.06
2019-05-07T06:02:26.822Z,1013.10
2019-05-07T06:03:27.061Z,1013.09
2019-05-07T06:04:26.779Z,1013.16
2019-05-07T06:05:26.739Z,1013.18
2019-05-07T06:06:26.717Z,1013.17
2019-05-07T06:07:26.715Z,1013.11
2019-05-07T06:08:26.696Z,1013.21
2019-05-07T06:09:26.703Z,1013.25
2019-05-07T06:10:26.688Z,1013.21
2019-05-07T06:11:26.663Z,1013.21
2019-05-07T06:12:26.689Z,1013.19
2019-05-07T06:13:26.650Z,1013.11
2019-05-07T06:14:26.728Z,1013.22
2019-05-07T06:15:26.617Z,1013.16
2019-05-07T06:16:26.602Z,1013.21
2019-05-07T06:17:26.591Z,1013.19
2019-05-07T06:18:26.585Z,1013.18
2019-05-07T06:19:26.587Z,1013.14
2019-05-07T06:20:26.607Z,1013.19
2019-05-07T06:21:26.554Z,1013.17
2019-05-07T06:22:26.582Z,1013.16
2019-05-07T06:23:26.662Z,1013.18
2019-05-07T06:24:26.579Z,1013.21
2019-05-07T06:25:26.560Z,1013.14
2019-05-07T06:26:26.673Z,1013.15
2019-05-07T06:27:26.493Z,1013.18
2019-05-07T06:28:26.499Z,1013.16
2019-05-07T06:29:26.469Z,1013.14
2019-05-07T06:30:26.451Z,1013.19
2019-05-07T06:31:26.433Z,1013.20
2019-05-07T06:32:26.436Z,1013.23
2019-05-07T06:33:26.465Z,1013.24
2019-05-07T06:34:26.408Z,1013.22
2019-05-07T06:35:26.415Z,1013.29
2019-05-07T06:36:26.380Z,1013.28
2019-05-07T06:37:26.365Z,1013.24
2019-05-07T06:38:26.374Z,1013.26
2019-05-07T06:39:26.356Z,1013.28
2019-05-07T06:40:29.301Z,1013.26
2019-05-07T06:41:26.328Z,1013.25
2019-05-07T06:42:26.312Z,1013.26
2019-05-07T06:43:26.326Z,1013.32
2019-05-07T06:44:26.302Z,1013.30
2019-05-07T06:45:26.298Z,1013.33
2019-05-07T06:46:26.318Z,1013.33
2019-05-07T06:47:26.264Z,1013.44
2019-05-07T06:48:38.090Z,1013.65
2019-05-07T06:49:27.323Z,1013.49
2019-05-07T06:50:26.242Z,1013.59
2019-05-07T06:51:26.255Z,1013.60
2019-05-07T06:52:26.217Z,1013.59
2019-05-07T06:53:26.202Z,1013.51
2019-05-07T06:54:26.189Z,1013.55
2019-05-07T06:55:26.189Z,1013.48
2019-05-07T06:56:26.199Z,1013.45
2019-05-07T06:57:26.405Z,1013.53
2019-05-07T06:58:26.168Z,1013.55
2019-05-07T06:59:26.137Z,1013.62
2019-05-07T07:00:26.121Z,1013.56
2019-05-07T07:01:26.117Z,1013.55
2019-05-07T07:02:26.116Z,1013.56
2019-05-07T07:03:26.280Z,1013.57
2019-05-07T07:04:26.083Z,1013.60
2019-05-07T07:05:26.067Z,1013.60
2019-05-07T07:06:26.054Z,1013.63
2019-05-07T07:07:31.027Z,1013.59
2019-05-07T07:08:27.080Z,1013.68
2019-05-07T07:09:26.019Z,1013.65
2019-05-07T07:10:26.009Z,1013.60
2019-05-07T07:11:26.018Z,1013.63
2019-05-07T07:12:26.268Z,1013.69
2019-05-07T07:13:25.984Z,1013.66
2019-05-07T07:14:26.029Z,1013.67
2019-05-07T07:15:25.959Z,1013.59
2019-05-07T07:16:25.955Z,1013.65
2019-05-07T07:17:25.923Z,1013.69
2019-05-07T07:18:25.924Z,1013.56
2019-05-07T07:19:25.920Z,1013.56
2019-05-07T07:20:25.932Z,1013.72
2019-05-07T07:21:25.881Z,1013.69
2019-05-07T07:22:25.878Z,1013.32
2019-05-07T07:23:25.864Z,1013.68
2019-05-07T07:24:25.863Z,1013.72
2019-05-07T07:25:25.861Z,1013.71
2019-05-07T07:26:25.862Z,1013.62
2019-05-07T07:27:25.825Z,1013.69
2019-05-07T07:28:25.816Z,1013.62
2019-05-07T07:29:25.801Z,1013.64
2019-05-07T07:30:25.800Z,1013.52
2019-05-07T07:31:26.322Z,1013.18
2019-05-07T07:32:26.271Z,1013.30
2019-05-07T07:33:25.800Z,1013.25
2019-05-07T07:34:25.820Z,1013.54
2019-05-07T07:35:25.739Z,1013.61
2019-05-07T07:36:25.775Z,1013.70
2019-05-07T07:37:25.719Z,1013.13
2019-05-07T07:38:25.747Z,1013.21
2019-05-07T07:39:25.783Z,1013.21
2019-05-07T07:40:25.679Z,1013.14
2019-05-07T07:41:25.671Z,1013.15
2019-05-07T07:42:25.667Z,1013.77
2019-05-07T07:43:25.644Z,1013.73
2019-05-07T07:44:25.694Z,1013.64
2019-05-07T07:45:25.626Z,1013.60
2019-05-07T07:46:25.612Z,1013.66
2019-05-07T07:47:25.618Z,1013.63
2019-05-07T07:48:28.233Z,1013.62
2019-05-07T07:49:25.592Z,1013.61
2019-05-07T07:50:25.590Z,1013.65
2019-05-07T07:51:37.750Z,1013.64
2019-05-07T07:52:26.569Z,1013.46
2019-05-07T07:53:25.557Z,1013.63
2019-05-07T07:54:25.540Z,1013.09
2019-05-07T07:55:25.517Z,1013.19
2019-05-07T07:56:25.565Z,1013.38
2019-05-07T07:57:25.499Z,1013.13
2019-05-07T07:58:25.530Z,1013.13
2019-05-07T07:59:25.492Z,1013.19
2019-05-07T08:00:26.172Z,1013.17
2019-05-07T08:01:25.454Z,1013.15
2019-05-07T08:02:25.503Z,1013.23
2019-05-07T08:03:25.437Z,1013.29
2019-05-07T08:04:25.430Z,1013.90
2019-05-07T08:05:25.425Z,1013.78
2019-05-07T08:06:25.397Z,1013.75
2019-05-07T08:07:25.394Z,1013.82
2019-05-07T08:08:25.420Z,1013.76
2019-05-07T08:09:25.906Z,1013.74
2019-05-07T08:10:25.364Z,1013.71
2019-05-07T08:11:25.346Z,1013.71
2019-05-07T08:12:25.338Z,1013.70
2019-05-07T08:13:25.328Z,1013.72
2019-05-07T08:14:25.333Z,1013.71
2019-05-07T08:15:25.331Z,1013.75
2019-05-07T08:16:25.305Z,1013.73
2019-05-07T08:17:25.274Z,1013.82
2019-05-07T08:18:25.312Z,1013.83
2019-05-07T08:19:25.278Z,1013.51
2019-05-07T08:20:25.258Z,1013.08
2019-05-07T08:21:25.234Z,1013.04
2019-05-07T08:22:25.226Z,1012.98
2019-05-07T08:23:25.248Z,1013.14
2019-05-07T08:24:25.217Z,1013.06
2019-05-07T08:25:25.191Z,1013.17
2019-05-07T08:26:25.211Z,1013.17
2019-05-07T08:27:25.191Z,1013.89
2019-05-07T08:28:25.163Z,1013.86
2019-05-07T08:29:25.153Z,1013.86
2019-05-07T08:30:25.128Z,1013.84
2019-05-07T08:31:25.131Z,1013.84
2019-05-07T08:32:25.159Z,1013.40
2019-05-07T08:33:25.104Z,1013.83
2019-05-07T08:34:25.107Z,1013.14
2019-05-07T08:35:25.082Z,1013.86
2019-05-07T08:36:25.067Z,1013.67
2019-05-07T08:37:25.065Z,1013.84
2019-05-07T08:38:25.084Z,1013.17
2019-05-07T08:39:25.329Z,1013.15
2019-05-07T08:40:25.047Z,1013.07
2019-05-07T08:41:25.017Z,1013.13
2019-05-07T08:42:32.103Z,1013.05
2019-05-07T08:43:25.000Z,1012.99
2019-05-07T08:44:25.017Z,1013.11
2019-05-07T08:45:25.076Z,1013.09
2019-05-07T08:46:24.977Z,1013.09
2019-05-07T08:47:24.951Z,1013.04
2019-05-07T08:48:25.705Z,1013.05
2019-05-07T08:49:35.715Z,1013.09
2019-05-07T08:50:26.030Z,1013.03
2019-05-07T08:51:24.968Z,1013.69
2019-05-07T08:52:26.114Z,1013.76
2019-05-07T08:53:25.147Z,1013.72
2019-05-07T08:54:24.893Z,1013.23
2019-05-07T08:55:24.869Z,1012.91
2019-05-07T08:56:24.897Z,1012.98
2019-05-07T08:57:24.867Z,1013.05
2019-05-07T08:58:24.841Z,1013.01
2019-05-07T08:59:24.865Z,1013.02
2019-05-07T09:00:24.818Z,1013.01
2019-05-07T09:01:24.821Z,1012.97
2019-05-07T09:02:24.841Z,1013.06
2019-05-07T09:03:25.069Z,1013.09
2019-05-07T09:04:24.782Z,1013.70
2019-05-07T09:05:24.754Z,1013.72
2019-05-07T09:06:24.758Z,1013.77
2019-05-07T09:07:24.726Z,1013.66
2019-05-07T09:08:24.769Z,1013.62
2019-05-07T09:09:24.725Z,1013.70
2019-05-07T09:10:24.696Z,1013.78
2019-05-07T09:11:24.696Z,1013.76
2019-05-07T09:12:24.688Z,1013.77
2019-05-07T09:13:24.670Z,1013.74
2019-05-07T09:14:26.279Z,1013.72
2019-05-07T09:15:24.653Z,1013.77
2019-05-07T09:16:24.640Z,1013.74
2019-05-07T09:17:24.626Z,1013.75
2019-05-07T09:18:24.629Z,1013.19
2019-05-07T09:19:24.598Z,1012.98
2019-05-07T09:20:24.623Z,1012.98
2019-05-07T09:21:24.586Z,1012.98
2019-05-07T09:22:24.581Z,1012.97
2019-05-07T09:23:24.600Z,1013.01
2019-05-07T09:24:24.582Z,1013.03
2019-05-07T09:25:24.533Z,1012.91
2019-05-07T09:26:24.546Z,1012.98
2019-05-07T09:27:24.535Z,1013.00
2019-05-07T09:28:24.567Z,1013.01
2019-05-07T09:29:24.504Z,1013.10
2019-05-07T09:30:24.512Z,1013.78
2019-05-07T09:31:24.473Z,1013.78
2019-05-07T09:32:24.533Z,1013.71
2019-05-07T09:33:24.466Z,1013.73
2019-05-07T09:34:24.448Z,1013.75
2019-05-07T09:35:24.458Z,1013.79
2019-05-07T09:36:24.417Z,1013.01
2019-05-07T09:37:24.415Z,1013.82
2019-05-07T09:38:24.443Z,1013.86
2019-05-07T09:39:24.428Z,1013.88
2019-05-07T09:40:24.384Z,1013.84
2019-05-07T09:41:24.374Z,1013.09
2019-05-07T09:42:24.408Z,1013.55
2019-05-07T09:43:24.360Z,1013.96
2019-05-07T09:44:24.350Z,1013.74
2019-05-07T09:45:24.336Z,1013.00
2019-05-07T09:46:24.308Z,1012.96
2019-05-07T09:47:24.317Z,1013.01
2019-05-07T09:48:24.300Z,1013.02
2019-05-07T09:49:24.284Z,1013.03
2019-05-07T09:50:24.325Z,1013.05
2019-05-07T09:51:24.281Z,1013.02
2019-05-07T09:52:24.263Z,1013.04
2019-05-07T09:53:24.251Z,1013.05
2019-05-07T09:54:24.234Z,1013.00
2019-05-07T09:55:24.225Z,1013.63
2019-05-07T09:56:24.262Z,1013.84
2019-05-07T09:57:30.471Z,1013.78
2019-05-07T09:58:35.665Z,1013.76
2019-05-07T09:59:25.183Z,1013.74
2019-05-07T10:00:24.195Z,1013.80
2019-05-07T10:01:24.143Z,1013.77
2019-05-07T10:02:24.175Z,1013.76
2019-05-07T10:03:24.150Z,1013.76
2019-05-07T10:04:24.144Z,1013.72
2019-05-07T10:05:24.136Z,1013.79
2019-05-07T10:06:24.098Z,1013.76
2019-05-07T10:07:24.113Z,1013.82
2019-05-07T10:08:24.105Z,1013.59
2019-05-07T10:09:24.060Z,1013.77
2019-05-07T10:10:24.059Z,1013.66
2019-05-07T10:11:24.048Z,1013.63
2019-05-07T10:12:24.050Z,1013.78
2019-05-07T10:13:24.028Z,1013.75
2019-05-07T10:14:24.060Z,1013.85
2019-05-07T10:15:24.006Z,1012.84
2019-05-07T10:16:24.012Z,1013.14
2019-05-07T10:17:23.997Z,1013.46
2019-05-07T10:18:23.969Z,1013.50
2019-05-07T10:19:23.966Z,1013.13
2019-05-07T10:20:23.977Z,1012.82
2019-05-07T10:21:23.956Z,1012.82
2019-05-07T10:22:23.947Z,1012.85
2019-05-07T10:23:23.923Z,1012.84
2019-05-07T10:24:23.908Z,1012.83
2019-05-07T10:25:23.908Z,1012.82
2019-05-07T10:26:23.923Z,1012.82
2019-05-07T10:27:25.856Z,1012.83
2019-05-07T10:28:23.878Z,1012.83
2019-05-07T10:29:23.912Z,1012.75
2019-05-07T10:30:23.884Z,1012.81
2019-05-07T10:31:23.889Z,1012.84
2019-05-07T10:32:23.859Z,1012.81
2019-05-07T10:33:23.813Z,1012.83
2019-05-07T10:34:23.814Z,1012.78
2019-05-07T10:35:23.798Z,1012.92
2019-05-07T10:36:23.786Z,1012.92
2019-05-07T10:37:23.779Z,1012.88
2019-05-07T10:38:23.795Z,1012.86
2019-05-07T10:39:23.759Z,1012.96
2019-05-07T10:40:23.746Z,1013.90
2019-05-07T10:41:23.725Z,1013.80
2019-05-07T10:42:23.721Z,1013.80
2019-05-07T10:43:23.703Z,1013.78
2019-05-07T10:44:23.712Z,1013.82
2019-05-07T10:45:23.693Z,1012.97
2019-05-07T10:46:23.678Z,1012.81
2019-05-07T10:47:23.657Z,1013.39
2019-05-07T10:48:23.661Z,1013.82
2019-05-07T10:49:23.644Z,1013.79
2019-05-07T10:50:35.418Z,1012.88
2019-05-07T10:51:24.638Z,1013.82
2019-05-07T10:52:23.635Z,1013.82
2019-05-07T10:53:23.602Z,1013.40
2019-05-07T10:54:23.611Z,1012.72
2019-05-07T10:55:23.613Z,1013.32
2019-05-07T10:56:23.607Z,1013.67
2019-05-07T10:57:23.578Z,1013.75
2019-05-07T10:58:23.547Z,1013.55
2019-05-07T10:59:23.549Z,1012.74
2019-05-07T11:00:23.554Z,1012.74
2019-05-07T11:01:23.528Z,1012.89
2019-05-07T11:02:23.557Z,1013.12
2019-05-07T11:03:23.504Z,1013.75
2019-05-07T11:04:23.493Z,1013.83
2019-05-07T11:05:23.467Z,1013.07
2019-05-07T11:06:23.459Z,1013.75
2019-05-07T11:07:23.518Z,1013.80
2019-05-07T11:08:25.676Z,1012.78
2019-05-07T11:09:23.434Z,1013.77
2019-05-07T11:10:23.445Z,1013.75
2019-05-07T11:11:23.478Z,1013.65
2019-05-07T11:12:23.401Z,1013.63
2019-05-07T11:13:23.385Z,1013.75
2019-05-07T11:14:23.459Z,1012.82
2019-05-07T11:15:23.398Z,1013.40
2019-05-07T11:16:23.381Z,1012.67
2019-05-07T11:17:23.358Z,1012.56
2019-05-07T11:18:23.360Z,1012.64
2019-05-07T11:19:23.356Z,1012.57
2019-05-07T11:20:23.332Z,1012.59
2019-05-07T11:21:23.361Z,1012.63
2019-05-07T11:22:23.324Z,1012.65
2019-05-07T11:23:23.281Z,1012.58
2019-05-07T11:24:23.278Z,1012.56
2019-05-07T11:25:23.293Z,1012.59
2019-05-07T11:26:23.269Z,1012.59
2019-05-07T11:27:23.247Z,1012.75
2019-05-07T11:28:23.237Z,1012.60
2019-05-07T11:29:23.220Z,1012.59
2019-05-07T11:30:23.256Z,1012.64
2019-05-07T11:31:23.203Z,1012.67
2019-05-07T11:32:23.227Z,1012.60
2019-05-07T11:33:23.190Z,1012.59
2019-05-07T11:34:23.170Z,1012.65
2019-05-07T11:35:23.229Z,1012.62
2019-05-07T11:36:23.165Z,1012.63
2019-05-07T11:37:23.140Z,1012.60
2019-05-07T11:38:24.978Z,1012.61
2019-05-07T11:39:23.123Z,1012.59
2019-05-07T11:40:23.125Z,1012.62
2019-05-07T11:41:23.107Z,1013.51
2019-05-07T11:42:23.075Z,1013.48
2019-05-07T11:43:23.072Z,1013.49
2019-05-07T11:44:23.125Z,1012.41
2019-05-07T11:45:23.067Z,1012.40
2019-05-07T11:46:23.045Z,1012.37
2019-05-07T11:47:23.042Z,1013.28
2019-05-07T11:48:23.030Z,1013.41
2019-05-07T11:49:23.018Z,1013.38
2019-05-07T11:50:23.014Z,1013.41
2019-05-07T11:51:23.208Z,1013.37
2019-05-07T11:52:23.023Z,1013.31
2019-05-07T11:53:22.959Z,1013.30
2019-05-07T11:54:22.964Z,1013.34
2019-05-07T11:55:22.946Z,1013.35
2019-05-07T11:56:22.956Z,1013.36
2019-05-07T11:57:22.944Z,1013.28
2019-05-07T11:58:22.929Z,1013.36
2019-05-07T11:59:22.918Z,1013.26
2019-05-07T12:00:22.891Z,1013.30
2019-05-07T12:01:22.958Z,1013.26
2019-05-07T12:02:22.902Z,1013.22
2019-05-07T12:03:22.870Z,1013.25
2019-05-07T12:04:22.849Z,1013.30
2019-05-07T12:05:22.865Z,1013.22